Terminal Aerodrome Forecast
Issued by NWS Sterling, VA

Home | Current Version | Previous Version | Text Only | Print | Product List | Glossary On
Versions: 1 2 3 4 5 6 7 8 9 10 11 12 13 14 15 16 17 18 19 20
044
FTUS41 KLWX 302058 AAB
TAFMRB
TAF AMD
KMRB 302058Z 3021/0118 11009KT P6SM VCTS BKN035CB
      TEMPO 3021/3023 VRB15G35KT 2SM +TSRA BKN025CB
     FM010000 15008KT P6SM SCT040 BKN060
     FM010900 18004KT 4SM BR BKN250
     FM011200 18009KT P6SM BKN025
     FM011600 19014G26KT P6SM BKN035=

USA.gov is the U.S. government's official web portal to all federal, state and local government web resources and services.